createdAt,value
2018-02-10T00:00:36.859Z,-1.20
2018-02-10T00:03:04.513Z,-1.30
2018-02-10T00:05:32.038Z,-1.30
2018-02-10T00:07:59.547Z,-1.30
2018-02-10T00:10:27.043Z,-1.20
2018-02-10T00:12:55.319Z,-1.30
2018-02-10T00:15:22.850Z,-1.20
2018-02-10T00:17:50.378Z,-1.30
2018-02-10T00:20:17.913Z,-1.20
2018-02-10T00:22:48.197Z,-1.20
2018-02-10T00:25:15.688Z,-1.20
2018-02-10T00:27:43.213Z,-1.30
2018-02-10T00:30:10.732Z,-1.20
2018-02-10T00:32:38.222Z,-1.10
2018-02-10T00:35:05.744Z,-1.00
2018-02-10T00:37:33.248Z,-1.10
2018-02-10T00:40:00.839Z,-1.10
2018-02-10T00:42:28.339Z,-1.00
2018-02-10T00:44:55.866Z,-1.10
2018-02-10T00:47:23.361Z,-1.10
2018-02-10T00:49:50.884Z,-1.10
2018-02-10T00:52:18.384Z,-1.10
2018-02-10T00:54:45.892Z,-1.10
2018-02-10T00:57:13.405Z,-1.10
2018-02-10T00:59:40.896Z,-1.00
2018-02-10T01:02:08.414Z,-1.00
2018-02-10T01:04:35.918Z,-1.00
2018-02-10T01:07:03.411Z,-1.00
2018-02-10T01:09:30.895Z,-1.00
2018-02-10T01:11:58.395Z,-0.90
2018-02-10T01:14:25.889Z,-0.80
2018-02-10T01:16:53.365Z,-0.90
2018-02-10T01:19:20.875Z,-0.90
2018-02-10T01:21:48.380Z,-0.90
2018-02-10T01:24:15.890Z,-0.90
2018-02-10T01:26:43.416Z,-0.80
2018-02-10T01:29:11.671Z,-0.80
2018-02-10T01:31:39.296Z,-0.80
2018-02-10T01:34:06.799Z,-0.70
2018-02-10T01:36:34.273Z,-0.90
2018-02-10T01:39:01.769Z,-0.90
2018-02-10T01:41:29.366Z,-0.80
2018-02-10T01:43:56.855Z,-0.90
2018-02-10T01:46:24.339Z,-0.80
2018-02-10T01:48:51.852Z,-0.90
2018-02-10T01:51:19.354Z,-0.90
2018-02-10T01:53:46.848Z,-0.90
2018-02-10T01:56:14.341Z,-0.90
2018-02-10T01:58:42.634Z,-0.90
2018-02-10T02:01:10.128Z,-0.80
2018-02-10T02:03:37.656Z,-0.80
2018-02-10T02:06:05.155Z,-0.90
2018-02-10T02:08:32.627Z,-1.10
2018-02-10T02:11:00.918Z,-1.00
2018-02-10T02:13:29.163Z,-1.00
2018-02-10T02:15:56.653Z,-1.00
2018-02-10T02:18:24.918Z,-1.10
2018-02-10T02:20:53.189Z,-1.00
2018-02-10T02:23:21.450Z,-1.00
2018-02-10T02:25:49.008Z,-1.00
2018-02-10T02:28:16.517Z,-1.00
2018-02-10T02:30:44.020Z,-1.00
2018-02-10T02:33:11.510Z,-1.00
2018-02-10T02:35:38.990Z,-1.10
2018-02-10T02:38:06.484Z,-1.00
2018-02-10T02:40:34.002Z,-1.00
2018-02-10T02:43:01.515Z,-1.00
2018-02-10T02:45:28.982Z,-0.80
2018-02-10T02:47:57.254Z,-0.80
2018-02-10T02:50:24.764Z,-0.80
2018-02-10T02:52:52.260Z,-0.80
2018-02-10T02:55:19.783Z,-0.90
2018-02-10T02:57:47.253Z,-0.90
2018-02-10T03:00:14.735Z,-1.00
2018-02-10T03:02:42.280Z,-0.90
2018-02-10T03:05:09.798Z,-1.00
2018-02-10T03:07:37.326Z,-1.00
2018-02-10T03:10:05.622Z,-0.90
2018-02-10T03:12:33.142Z,-0.90
2018-02-10T03:15:00.641Z,-0.90
2018-02-10T03:17:28.167Z,-0.90
2018-02-10T03:19:56.457Z,-0.80
2018-02-10T03:22:24.744Z,-0.90
2018-02-10T03:24:52.999Z,-0.90
2018-02-10T03:27:21.270Z,-0.90
2018-02-10T03:29:48.760Z,-0.90
2018-02-10T03:32:16.262Z,-0.80
2018-02-10T03:34:43.772Z,-0.90
2018-02-10T03:37:11.279Z,-0.90
2018-02-10T03:39:38.783Z,-0.80
2018-02-10T03:42:06.303Z,-0.80
2018-02-10T03:44:33.800Z,-0.80
2018-02-10T03:47:01.335Z,-0.80
2018-02-10T03:49:29.626Z,-0.80
2018-02-10T03:51:57.884Z,-0.70
2018-02-10T03:54:25.415Z,-0.60
2018-02-10T03:56:53.220Z,-0.80
2018-02-10T03:59:20.809Z,-0.80
2018-02-10T04:01:49.182Z,-0.80
2018-02-10T04:04:16.691Z,-0.80
2018-02-10T04:06:44.204Z,-0.80
2018-02-10T04:09:11.697Z,-0.80
2018-02-10T04:11:39.203Z,-0.80
2018-02-10T04:14:06.694Z,-0.80
2018-02-10T04:16:34.172Z,-0.70
2018-02-10T04:19:01.684Z,-0.80
2018-02-10T04:21:29.189Z,-0.90
2018-02-10T04:23:56.677Z,-0.90
2018-02-10T04:26:24.209Z,-0.90
2018-02-10T04:28:51.712Z,-0.90
2018-02-10T04:31:19.192Z,-2.10
2018-02-10T04:33:46.696Z,-0.80
2018-02-10T04:36:14.189Z,-0.80
2018-02-10T04:38:41.717Z,-0.80
2018-02-10T04:41:09.214Z,-0.80
2018-02-10T04:43:36.701Z,-0.80
2018-02-10T04:46:04.207Z,-0.90
2018-02-10T04:48:31.742Z,-0.90
2018-02-10T04:51:00.113Z,-0.80
2018-02-10T04:53:28.534Z,-0.90
2018-02-10T04:55:56.072Z,-0.90
2018-02-10T04:58:23.565Z,-0.80
2018-02-10T05:00:51.059Z,-0.90
2018-02-10T05:03:18.565Z,-0.70
2018-02-10T05:05:46.072Z,-0.80
2018-02-10T05:08:13.591Z,-0.80
2018-02-10T05:10:41.392Z,-0.80
2018-02-10T05:13:08.955Z,-0.80
2018-02-10T05:15:36.448Z,-0.70
2018-02-10T05:18:04.748Z,-0.60
2018-02-10T05:20:32.225Z,-0.70
2018-02-10T05:23:00.544Z,-0.70
2018-02-10T05:25:28.051Z,-0.70
2018-02-10T05:27:55.583Z,-0.80
2018-02-10T05:30:23.060Z,-0.80
2018-02-10T05:32:50.573Z,-0.80
2018-02-10T05:35:18.038Z,-0.70
2018-02-10T05:37:47.204Z,-0.70
2018-02-10T05:40:14.950Z,-0.70
2018-02-10T05:42:42.437Z,-0.70
2018-02-10T05:45:09.947Z,-0.60
2018-02-10T05:47:37.461Z,-0.60
2018-02-10T05:50:04.962Z,-0.60
2018-02-10T05:52:32.440Z,-0.60
2018-02-10T05:54:59.933Z,-0.60
2018-02-10T05:57:27.423Z,-0.50
2018-02-10T05:59:54.943Z,-0.50
2018-02-10T06:02:22.445Z,-0.50
2018-02-10T06:04:49.955Z,-0.50
2018-02-10T06:07:17.448Z,-0.60
2018-02-10T06:09:44.961Z,-0.60
2018-02-10T06:12:12.473Z,-0.60
2018-02-10T06:14:39.985Z,-0.60
2018-02-10T06:17:07.485Z,-0.60
2018-02-10T06:19:34.970Z,-0.50
2018-02-10T06:22:02.482Z,-0.50
2018-02-10T06:24:30.033Z,-0.50
2018-02-10T06:26:58.301Z,-0.60
2018-02-10T06:29:25.794Z,-0.60
2018-02-10T06:31:53.303Z,-0.50
2018-02-10T06:34:20.801Z,-0.40
2018-02-10T06:36:49.055Z,-0.50
2018-02-10T06:39:17.329Z,-0.50
2018-02-10T06:41:45.580Z,-0.50
2018-02-10T06:44:13.061Z,-0.60
2018-02-10T06:46:41.359Z,-0.50
2018-02-10T06:49:09.629Z,-0.40
2018-02-10T06:51:37.927Z,-0.40
2018-02-10T06:54:05.893Z,-0.60
2018-02-10T06:56:33.383Z,-0.40
2018-02-10T06:59:00.877Z,-0.40
2018-02-10T07:01:29.154Z,-0.50
2018-02-10T07:03:58.193Z,-0.50
2018-02-10T07:06:25.670Z,-0.50
2018-02-10T07:08:53.353Z,-0.60
2018-02-10T07:11:20.923Z,-0.70
2018-02-10T07:13:49.200Z,-0.60
2018-02-10T07:16:16.713Z,-0.60
2018-02-10T07:18:44.212Z,-0.70
2018-02-10T07:21:12.183Z,-0.50
2018-02-10T07:23:39.663Z,-0.40
2018-02-10T07:26:07.222Z,-0.40
2018-02-10T07:28:35.690Z,-0.40
2018-02-10T07:31:03.212Z,-0.50
2018-02-10T07:33:31.482Z,-0.60
2018-02-10T07:35:59.745Z,-0.60
2018-02-10T07:38:27.267Z,-0.60
2018-02-10T07:40:54.779Z,-0.60
2018-02-10T07:43:22.318Z,-0.60
2018-02-10T07:45:49.837Z,-0.40
2018-02-10T07:48:18.338Z,-0.40
2018-02-10T07:50:45.828Z,-0.50
2018-02-10T07:53:13.616Z,-0.50
2018-02-10T07:55:41.087Z,-0.50
2018-02-10T07:58:09.393Z,-0.50
2018-02-10T08:00:36.896Z,-0.50
2018-02-10T08:03:04.393Z,-0.40
2018-02-10T08:05:32.667Z,-0.20
2018-02-10T08:08:00.221Z,-0.20
2018-02-10T08:10:27.724Z,-0.20
2018-02-10T08:12:56.062Z,-0.20
2018-02-10T08:15:24.343Z,-0.30
2018-02-10T08:17:51.834Z,-0.40
2018-02-10T08:20:19.342Z,-0.10
2018-02-10T08:22:46.871Z,-0.30
2018-02-10T08:25:14.371Z,-0.30
2018-02-10T08:27:42.642Z,-0.30
2018-02-10T08:30:10.180Z,-0.30
2018-02-10T08:32:37.721Z,-0.20
2018-02-10T08:35:05.317Z,-0.20
2018-02-10T08:37:33.614Z,-0.10
2018-02-10T08:40:01.142Z,-0.10
2018-02-10T08:42:29.454Z,-0.10
2018-02-10T08:44:56.959Z,-0.10
2018-02-10T08:47:24.457Z,0.00
2018-02-10T08:49:51.961Z,-0.10
2018-02-10T08:52:19.630Z,-0.10
2018-02-10T08:54:47.200Z,-0.10
2018-02-10T08:57:15.347Z,-0.20
2018-02-10T08:59:43.101Z,-0.10
2018-02-10T09:02:10.675Z,-0.10
2018-02-10T09:04:38.208Z,0.00
2018-02-10T09:07:05.758Z,0.00
2018-02-10T09:09:33.275Z,0.00
2018-02-10T09:12:00.780Z,-0.10
2018-02-10T09:14:28.306Z,-0.10
2018-02-10T09:16:56.891Z,0.00
2018-02-10T09:19:24.387Z,-0.10
2018-02-10T09:21:51.925Z,-0.10
2018-02-10T09:24:19.409Z,0.00
2018-02-10T09:26:46.928Z,0.10
2018-02-10T09:29:14.459Z,0.20
2018-02-10T09:31:41.931Z,0.10
2018-02-10T09:34:09.437Z,0.10
2018-02-10T09:36:36.947Z,0.10
2018-02-10T09:39:04.491Z,0.20
2018-02-10T09:41:32.004Z,0.20
2018-02-10T09:43:59.986Z,0.20
2018-02-10T09:46:27.515Z,0.30
2018-02-10T09:48:55.009Z,0.30
2018-02-10T09:51:23.532Z,0.10
2018-02-10T09:53:51.107Z,0.10
2018-02-10T09:56:19.450Z,0.20
2018-02-10T09:58:46.985Z,0.20
2018-02-10T10:01:14.507Z,0.20
2018-02-10T10:03:41.991Z,0.40
2018-02-10T10:06:09.516Z,0.20
2018-02-10T10:08:37.021Z,0.30
2018-02-10T10:11:04.472Z,0.30
2018-02-10T10:13:32.749Z,0.30
2018-02-10T10:16:01.123Z,0.40
2018-02-10T10:18:28.641Z,0.40
2018-02-10T10:20:56.167Z,0.30
2018-02-10T10:23:23.669Z,0.40
2018-02-10T10:25:51.172Z,0.60
2018-02-10T10:28:18.675Z,0.70
2018-02-10T10:30:46.172Z,0.90
2018-02-10T10:33:14.453Z,1.20
2018-02-10T10:35:42.695Z,1.30
2018-02-10T10:38:10.211Z,1.30
2018-02-10T10:40:37.741Z,1.10
2018-02-10T10:43:05.297Z,1.10
2018-02-10T10:45:32.812Z,1.10
2018-02-10T10:48:01.077Z,1.20
2018-02-10T10:50:28.618Z,1.20
2018-02-10T10:52:56.138Z,1.30
2018-02-10T10:55:23.643Z,1.30
2018-02-10T10:57:51.177Z,1.20
2018-02-10T11:00:18.723Z,1.30
2018-02-10T11:02:46.485Z,1.20
2018-02-10T11:05:14.871Z,1.30
2018-02-10T11:07:42.362Z,1.30
2018-02-10T11:10:10.655Z,1.20
2018-02-10T11:12:38.177Z,1.20
2018-02-10T11:15:05.691Z,1.20
2018-02-10T11:17:33.200Z,1.20
2018-02-10T11:20:00.712Z,1.10
2018-02-10T11:22:28.208Z,1.10
2018-02-10T11:24:55.740Z,1.20
2018-02-10T11:27:23.256Z,1.10
2018-02-10T11:29:50.743Z,1.30
2018-02-10T11:32:18.251Z,1.40
2018-02-10T11:34:45.849Z,1.70
2018-02-10T11:39:47.173Z,1.70
2018-02-10T11:42:14.671Z,1.60
2018-02-10T11:44:42.200Z,1.70
2018-02-10T11:47:09.715Z,1.80
2018-02-10T11:49:37.976Z,1.50
2018-02-10T11:52:05.491Z,1.50
2018-02-10T11:54:33.021Z,1.50
2018-02-10T11:57:00.544Z,1.50
2018-02-10T11:59:28.033Z,1.60
2018-02-10T12:01:55.553Z,1.50
2018-02-10T12:04:23.056Z,1.40
2018-02-10T12:06:50.565Z,1.30
2018-02-10T12:09:18.103Z,1.30
2018-02-10T12:11:46.390Z,1.30
2018-02-10T12:14:14.658Z,1.40
2018-02-10T12:16:42.954Z,1.30
2018-02-10T12:19:10.461Z,1.30
2018-02-10T12:21:37.960Z,1.20
2018-02-10T12:24:05.479Z,1.40
2018-02-10T12:26:33.024Z,1.40
2018-02-10T12:29:00.521Z,1.50
2018-02-10T12:31:28.037Z,1.70
2018-02-10T12:33:55.635Z,1.80
2018-02-10T12:36:23.145Z,1.90
2018-02-10T12:38:50.645Z,2.20
2018-02-10T12:41:18.393Z,2.30
2018-02-10T12:43:45.904Z,2.30
2018-02-10T12:46:13.422Z,2.30
2018-02-10T12:48:57.396Z,2.40
2018-02-10T12:51:24.896Z,2.60
2018-02-10T12:53:52.400Z,2.60
2018-02-10T12:56:20.675Z,3.50
2018-02-10T12:58:48.393Z,3.40
2018-02-10T13:01:15.910Z,3.90
2018-02-10T13:03:43.393Z,3.50
2018-02-10T13:06:10.905Z,3.90
2018-02-10T13:08:39.167Z,3.30
2018-02-10T13:11:06.664Z,3.20
2018-02-10T13:13:34.179Z,2.90
2018-02-10T13:16:01.648Z,2.80
2018-02-10T13:18:29.134Z,2.60
2018-02-10T13:20:56.627Z,2.60
2018-02-10T13:23:24.127Z,2.40
2018-02-10T13:25:52.379Z,2.30
2018-02-10T13:28:20.682Z,2.30
2018-02-10T13:30:48.934Z,2.20
2018-02-10T13:33:18.222Z,2.30
2018-02-10T13:35:45.722Z,2.30
2018-02-10T13:38:13.980Z,2.30
2018-02-10T13:40:42.258Z,2.20
2018-02-10T13:43:10.548Z,2.10
2018-02-10T13:45:38.810Z,2.00
2018-02-10T13:48:07.107Z,1.90
2018-02-10T13:50:36.155Z,1.80
2018-02-10T13:53:05.294Z,1.90
2018-02-10T13:55:32.869Z,1.90
2018-02-10T13:58:00.363Z,1.90
2018-02-10T14:00:27.901Z,1.80
2018-02-10T14:02:55.427Z,1.70
2018-02-10T14:05:23.713Z,1.90
2018-02-10T14:07:51.294Z,1.80
2018-02-10T14:10:18.787Z,1.80
2018-02-10T14:12:46.331Z,1.80
2018-02-10T14:15:13.911Z,1.60
2018-02-10T14:17:41.434Z,1.80
2018-02-10T14:20:09.743Z,1.80
2018-02-10T14:22:37.240Z,1.80
2018-02-10T14:25:04.780Z,1.60
2018-02-10T14:27:33.977Z,1.60
2018-02-10T14:30:01.451Z,1.60
2018-02-10T14:32:28.957Z,1.60
2018-02-10T14:34:56.470Z,1.70
2018-02-10T14:37:23.969Z,1.70
2018-02-10T14:39:51.465Z,1.70
2018-02-10T14:42:19.736Z,1.70
2018-02-10T14:44:47.985Z,1.70
2018-02-10T14:47:16.301Z,1.70
2018-02-10T14:49:43.814Z,1.70
2018-02-10T14:52:11.311Z,1.70
2018-02-10T14:54:38.801Z,1.70
2018-02-10T14:57:06.281Z,1.70
2018-02-10T14:59:33.759Z,1.60
2018-02-10T15:02:01.268Z,1.60
2018-02-10T15:04:28.800Z,1.60
2018-02-10T15:06:56.290Z,1.60
2018-02-10T15:09:23.786Z,1.60
2018-02-10T15:11:51.322Z,1.50
2018-02-10T15:14:18.799Z,1.50
2018-02-10T15:16:46.280Z,1.50
2018-02-10T15:19:14.557Z,1.50
2018-02-10T15:21:42.054Z,1.50
2018-02-10T15:24:10.377Z,1.50
2018-02-10T15:26:37.882Z,1.70
2018-02-10T15:29:05.394Z,1.50
2018-02-10T15:31:44.654Z,1.50
2018-02-10T15:34:23.994Z,1.50
2018-02-10T15:36:51.494Z,1.60
2018-02-10T15:39:18.995Z,1.50
2018-02-10T15:41:47.276Z,1.50
2018-02-10T15:44:15.558Z,1.50
2018-02-10T15:46:43.807Z,1.50
2018-02-10T15:49:11.301Z,1.50
2018-02-10T15:51:38.807Z,1.50
2018-02-10T15:54:06.310Z,1.40
2018-02-10T15:56:34.549Z,1.40
2018-02-10T15:59:02.109Z,1.40
2018-02-10T16:01:29.593Z,1.40
2018-02-10T16:03:58.136Z,1.50
2018-02-10T16:06:25.672Z,1.40
2018-02-10T16:08:53.225Z,1.40
2018-02-10T16:11:21.103Z,1.50
2018-02-10T16:13:48.603Z,1.40
2018-02-10T16:16:16.125Z,1.40
2018-02-10T16:18:43.619Z,1.40
2018-02-10T16:21:11.915Z,1.40
2018-02-10T16:23:40.224Z,1.40
2018-02-10T16:26:07.699Z,1.30
2018-02-10T16:28:35.230Z,1.40
2018-02-10T16:31:02.752Z,1.30
2018-02-10T16:33:31.039Z,1.30
2018-02-10T16:35:59.323Z,1.30
2018-02-10T16:38:26.797Z,1.30
2018-02-10T16:40:55.148Z,1.40
2018-02-10T16:43:22.684Z,1.30
2018-02-10T16:45:50.228Z,1.40
2018-02-10T16:48:32.778Z,1.40
2018-02-10T16:51:00.287Z,1.40
2018-02-10T16:53:27.825Z,1.40
2018-02-10T16:55:55.366Z,1.40
2018-02-10T16:58:23.609Z,1.40
2018-02-10T17:00:51.102Z,1.30
2018-02-10T17:03:18.627Z,1.30
2018-02-10T17:05:46.124Z,1.40
2018-02-10T17:08:13.978Z,1.30
2018-02-10T17:10:41.504Z,1.30
2018-02-10T17:13:09.049Z,1.30
2018-02-10T17:15:36.552Z,1.30
2018-02-10T17:18:04.820Z,1.30
2018-02-10T17:20:32.310Z,1.30
2018-02-10T17:23:00.095Z,1.30
2018-02-10T17:25:27.633Z,1.30
2018-02-10T17:27:56.070Z,1.30
2018-02-10T17:30:23.629Z,1.40
2018-02-10T17:32:51.101Z,1.20
2018-02-10T17:35:18.579Z,1.20
2018-02-10T17:37:46.095Z,1.20
2018-02-10T17:40:13.666Z,1.20
2018-02-10T17:42:41.933Z,1.10
2018-02-10T17:45:09.407Z,1.10
2018-02-10T17:47:37.730Z,1.10
2018-02-10T17:50:05.248Z,1.10
2018-02-10T17:52:33.536Z,1.10
2018-02-10T17:55:01.058Z,1.10
2018-02-10T17:57:29.338Z,1.00
2018-02-10T17:59:57.607Z,0.90
2018-02-10T18:02:25.890Z,0.90
2018-02-10T18:04:53.544Z,0.90
2018-02-10T18:07:22.143Z,0.90
2018-02-10T18:09:49.653Z,0.90
2018-02-10T18:12:17.170Z,1.00
2018-02-10T18:14:44.746Z,1.00
2018-02-10T18:17:12.256Z,1.00
2018-02-10T18:19:39.791Z,0.90
2018-02-10T18:22:07.303Z,0.90
2018-02-10T18:24:34.819Z,1.00
2018-02-10T18:27:02.344Z,1.00
2018-02-10T18:29:29.854Z,1.00
2018-02-10T18:31:57.373Z,1.00
2018-02-10T18:34:24.935Z,1.00
2018-02-10T18:36:52.477Z,1.00
2018-02-10T18:39:19.990Z,1.00
2018-02-10T18:41:47.938Z,1.00
2018-02-10T18:44:15.749Z,0.90
2018-02-10T18:46:43.303Z,1.00
2018-02-10T18:49:11.067Z,0.90
2018-02-10T18:51:38.661Z,0.80
2018-02-10T18:54:06.167Z,0.90
2018-02-10T18:56:34.690Z,0.90
2018-02-10T18:59:02.196Z,0.90
2018-02-10T19:01:29.735Z,0.80
2018-02-10T19:03:57.276Z,0.80
2018-02-10T19:06:24.804Z,0.90
2018-02-10T19:08:52.646Z,0.80
2018-02-10T19:11:20.188Z,0.70
2018-02-10T19:13:47.707Z,0.70
2018-02-10T19:16:15.191Z,0.70
2018-02-10T19:18:42.691Z,0.70
2018-02-10T19:21:10.168Z,0.70
2018-02-10T19:23:37.697Z,0.60
2018-02-10T19:26:06.010Z,0.60
2018-02-10T19:28:33.574Z,0.50
2018-02-10T19:31:01.077Z,0.50
2018-02-10T19:33:28.585Z,0.50
2018-02-10T19:35:56.121Z,0.60
2018-02-10T19:38:23.697Z,0.50
2018-02-10T19:40:51.209Z,0.60
2018-02-10T19:43:18.725Z,0.60
2018-02-10T19:45:46.279Z,0.60
2018-02-10T19:48:13.849Z,0.60
2018-02-10T19:50:41.327Z,0.60
2018-02-10T19:53:08.828Z,0.60
2018-02-10T19:55:36.336Z,0.60
2018-02-10T19:58:03.842Z,0.50
2018-02-10T20:00:31.442Z,0.60
2018-02-10T20:02:58.958Z,0.50
2018-02-10T20:05:26.466Z,0.40
2018-02-10T20:07:53.992Z,0.40
2018-02-10T20:10:21.480Z,0.20
2018-02-10T20:12:49.027Z,0.30
2018-02-10T20:15:16.520Z,0.30
2018-02-10T20:17:44.010Z,0.20
2018-02-10T20:20:11.542Z,0.20
2018-02-10T20:22:39.055Z,0.10
2018-02-10T20:25:06.571Z,0.10
2018-02-10T20:27:34.897Z,0.10
2018-02-10T20:30:03.133Z,0.10
2018-02-10T20:32:30.661Z,0.00
2018-02-10T20:34:58.163Z,0.10
2018-02-10T20:37:25.698Z,0.10
2018-02-10T20:39:53.214Z,0.00
2018-02-10T20:42:20.701Z,0.10
2018-02-10T20:44:48.255Z,0.00
2018-02-10T20:47:15.739Z,0.00
2018-02-10T20:49:43.284Z,0.00
2018-02-10T20:52:11.587Z,-0.10
2018-02-10T20:54:39.119Z,-0.10
2018-02-10T20:57:07.134Z,-0.10
2018-02-10T20:59:35.462Z,-0.10
2018-02-10T21:02:03.030Z,-0.20
2018-02-10T21:04:31.306Z,-0.20
2018-02-10T21:06:59.606Z,-0.20
2018-02-10T21:09:28.165Z,-0.10
2018-02-10T21:11:55.776Z,-0.30
2018-02-10T21:14:23.392Z,-0.20
2018-02-10T21:16:50.949Z,-0.30
2018-02-10T21:19:18.500Z,-0.30
2018-02-10T21:21:46.007Z,-0.30
2018-02-10T21:24:13.537Z,-0.30
2018-02-10T21:26:41.080Z,-0.30
2018-02-10T21:29:08.592Z,-0.30
2018-02-10T21:31:36.108Z,-0.20
2018-02-10T21:34:03.660Z,-0.30
2018-02-10T21:36:31.920Z,-0.30
2018-02-10T21:38:59.443Z,-0.30
2018-02-10T21:41:26.946Z,-0.40
2018-02-10T21:43:54.483Z,-0.40
2018-02-10T21:46:22.032Z,-0.40
2018-02-10T21:48:49.977Z,-0.40
2018-02-10T21:51:17.588Z,-0.50
2018-02-10T21:53:45.903Z,-0.50
2018-02-10T21:56:13.400Z,-0.50
2018-02-10T21:58:40.954Z,-0.50
2018-02-10T22:01:08.487Z,-0.40
2018-02-10T22:03:36.057Z,-0.40
2018-02-10T22:06:03.678Z,-0.50
2018-02-10T22:08:31.287Z,-0.50
2018-02-10T22:10:59.027Z,-0.50
2018-02-10T22:13:27.451Z,-0.50
2018-02-10T22:15:55.012Z,-0.40
2018-02-10T22:18:22.838Z,-0.50
2018-02-10T22:20:50.386Z,-0.40
2018-02-10T22:23:17.914Z,-0.50
2018-02-10T22:25:45.510Z,-0.50
2018-02-10T22:28:13.035Z,-0.50
2018-02-10T22:30:40.590Z,-0.50
2018-02-10T22:33:08.137Z,-0.50
2018-02-10T22:35:35.824Z,-0.50
2018-02-10T22:38:03.370Z,-0.50
2018-02-10T22:40:30.883Z,-0.50
2018-02-10T22:42:58.370Z,-0.50
2018-02-10T22:45:25.882Z,-0.50
2018-02-10T22:47:53.411Z,-0.50
2018-02-10T22:50:20.917Z,-0.50
2018-02-10T22:52:48.439Z,-0.50
2018-02-10T22:55:15.946Z,-0.40
2018-02-10T22:57:43.487Z,-0.40
2018-02-10T23:00:10.994Z,-0.50
2018-02-10T23:02:39.252Z,-0.40
2018-02-10T23:05:07.522Z,-0.40
2018-02-10T23:07:35.115Z,-0.40
2018-02-10T23:10:02.647Z,-0.50
2018-02-10T23:12:30.278Z,-0.40
2018-02-10T23:14:57.819Z,-0.40
2018-02-10T23:17:25.319Z,-0.40
2018-02-10T23:19:53.638Z,-0.40
2018-02-10T23:22:21.201Z,-0.40
2018-02-10T23:24:48.682Z,-0.40
2018-02-10T23:27:17.273Z,-0.30
2018-02-10T23:29:44.780Z,-0.40
2018-02-10T23:32:12.462Z,-0.30
2018-02-10T23:34:39.962Z,-0.30
2018-02-10T23:37:07.461Z,-0.30
2018-02-10T23:39:35.060Z,-0.30
2018-02-10T23:42:02.561Z,-0.30
2018-02-10T23:44:30.066Z,-0.20
2018-02-10T23:46:57.614Z,-0.20
2018-02-10T23:49:25.152Z,-0.20
2018-02-10T23:51:52.960Z,-0.20
2018-02-10T23:54:20.466Z,-0.20
2018-02-10T23:56:49.021Z,-0.10
2018-02-10T23:59:17.334Z,-0.20
